Terminal Aerodrome Forecast
Issued by NWS

Home | Current Version | Previous Version | Text Only | Print | Product List | Glossary On
Versions: 1 2 3 4 5 6 7 8 9 10 11 12 13 14 15 16 17 18 19 20
000
FTUS43 KMQT 172300
TAFIWD
TAF
KIWD 172337Z 1800/1824 35007KT P6SM -SN OVC010
     FM180300 02005KT P6SM BKN010
     FM180700 03003KT P6SM BKN015
     FM181600 05004KT P6SM SCT015
      AMD LTD TO CLD VIS AND WIND=

USA.gov is the U.S. government's official web portal to all federal, state and local government web resources and services.